sensor_id;sensor_type;location;lat;lon;timestamp;temperature;humidity
32296;DHT22;18781;51.550;5.418;2024-01-30T00:02:16;11.30;75.40
32296;DHT22;18781;51.550;5.418;2024-01-30T00:04:42;11.40;75.50
32296;DHT22;18781;51.550;5.418;2024-01-30T00:07:07;11.40;75.50
32296;DHT22;18781;51.550;5.418;2024-01-30T00:09:33;11.40;75.50
32296;DHT22;18781;51.550;5.418;2024-01-30T00:11:59;11.30;75.50
32296;DHT22;18781;51.550;5.418;2024-01-30T00:14:25;11.30;75.50
32296;DHT22;18781;51.550;5.418;2024-01-30T00:16:51;11.30;75.50
32296;DHT22;18781;51.550;5.418;2024-01-30T00:19:17;11.30;75.50
32296;DHT22;18781;51.550;5.418;2024-01-30T00:21:42;11.30;75.50
32296;DHT22;18781;51.550;5.418;2024-01-30T00:24:08;11.20;76.00
32296;DHT22;18781;51.550;5.418;2024-01-30T00:26:34;11.20;75.50
32296;DHT22;18781;51.550;5.418;2024-01-30T00:29:00;11.20;75.50
32296;DHT22;18781;51.550;5.418;2024-01-30T00:31:26;11.20;75.50
32296;DHT22;18781;51.550;5.418;2024-01-30T00:33:51;11.20;75.60
32296;DHT22;18781;51.550;5.418;2024-01-30T00:36:17;11.20;75.60
32296;DHT22;18781;51.550;5.418;2024-01-30T00:38:43;11.10;75.60
32296;DHT22;18781;51.550;5.418;2024-01-30T00:41:09;11.10;75.60
32296;DHT22;18781;51.550;5.418;2024-01-30T00:43:35;11.10;75.60
32296;DHT22;18781;51.550;5.418;2024-01-30T00:46:01;11.10;75.70
32296;DHT22;18781;51.550;5.418;2024-01-30T00:48:26;11.10;75.70
32296;DHT22;18781;51.550;5.418;2024-01-30T00:50:52;11.10;75.70
32296;DHT22;18781;51.550;5.418;2024-01-30T00:53:18;11.10;75.60
32296;DHT22;18781;51.550;5.418;2024-01-30T00:55:43;11.10;75.70
32296;DHT22;18781;51.550;5.418;2024-01-30T00:58:09;11.00;75.70
32296;DHT22;18781;51.550;5.418;2024-01-30T01:00:35;11.00;75.60
32296;DHT22;18781;51.550;5.418;2024-01-30T01:03:00;11.00;75.60
32296;DHT22;18781;51.550;5.418;2024-01-30T01:05:26;11.00;75.70
32296;DHT22;18781;51.550;5.418;2024-01-30T01:07:52;11.00;75.70
32296;DHT22;18781;51.550;5.418;2024-01-30T01:10:18;11.00;75.70
32296;DHT22;18781;51.550;5.418;2024-01-30T01:12:44;11.00;75.70
32296;DHT22;18781;51.550;5.418;2024-01-30T01:15:10;11.00;75.70
32296;DHT22;18781;51.550;5.418;2024-01-30T01:17:39;10.90;75.70
32296;DHT22;18781;51.550;5.418;2024-01-30T01:20:07;10.90;75.70
32296;DHT22;18781;51.550;5.418;2024-01-30T01:22:34;10.90;75.70
32296;DHT22;18781;51.550;5.418;2024-01-30T01:25:00;10.90;75.70
32296;DHT22;18781;51.550;5.418;2024-01-30T01:27:26;10.90;75.70
32296;DHT22;18781;51.550;5.418;2024-01-30T01:29:52;10.90;75.80
32296;DHT22;18781;51.550;5.418;2024-01-30T01:32:18;10.90;75.80
32296;DHT22;18781;51.550;5.418;2024-01-30T01:34:44;10.90;75.90
32296;DHT22;18781;51.550;5.418;2024-01-30T01:37:10;10.90;75.90
32296;DHT22;18781;51.550;5.418;2024-01-30T01:39:35;10.90;75.90
32296;DHT22;18781;51.550;5.418;2024-01-30T01:42:01;10.90;75.90
32296;DHT22;18781;51.550;5.418;2024-01-30T01:44:27;10.90;75.90
32296;DHT22;18781;51.550;5.418;2024-01-30T01:46:54;10.90;75.90
32296;DHT22;18781;51.550;5.418;2024-01-30T01:49:20;10.80;75.90
32296;DHT22;18781;51.550;5.418;2024-01-30T01:51:47;10.90;76.00
32296;DHT22;18781;51.550;5.418;2024-01-30T01:54:14;10.80;76.00
32296;DHT22;18781;51.550;5.418;2024-01-30T01:56:42;10.80;76.10
32296;DHT22;18781;51.550;5.418;2024-01-30T01:59:09;10.90;76.10
32296;DHT22;18781;51.550;5.418;2024-01-30T02:01:38;10.80;76.10
32296;DHT22;18781;51.550;5.418;2024-01-30T02:04:04;10.80;76.20
32296;DHT22;18781;51.550;5.418;2024-01-30T02:06:30;10.90;76.20
32296;DHT22;18781;51.550;5.418;2024-01-30T02:08:56;10.90;76.20
32296;DHT22;18781;51.550;5.418;2024-01-30T02:11:22;10.90;76.20
32296;DHT22;18781;51.550;5.418;2024-01-30T02:13:49;10.90;76.20
32296;DHT22;18781;51.550;5.418;2024-01-30T02:16:15;10.90;76.20
32296;DHT22;18781;51.550;5.418;2024-01-30T02:18:42;10.90;76.10
32296;DHT22;18781;51.550;5.418;2024-01-30T02:21:13;10.90;76.10
32296;DHT22;18781;51.550;5.418;2024-01-30T02:23:40;10.90;76.10
32296;DHT22;18781;51.550;5.418;2024-01-30T02:26:06;10.90;76.10
32296;DHT22;18781;51.550;5.418;2024-01-30T02:28:32;10.90;76.10
32296;DHT22;18781;51.550;5.418;2024-01-30T02:30:57;10.90;76.10
32296;DHT22;18781;51.550;5.418;2024-01-30T02:33:23;10.90;76.10
32296;DHT22;18781;51.550;5.418;2024-01-30T02:35:49;10.90;76.10
32296;DHT22;18781;51.550;5.418;2024-01-30T02:38:15;10.90;76.10
32296;DHT22;18781;51.550;5.418;2024-01-30T02:40:41;10.90;76.10
32296;DHT22;18781;51.550;5.418;2024-01-30T02:43:06;10.90;76.10
32296;DHT22;18781;51.550;5.418;2024-01-30T02:45:32;11.00;76.10
32296;DHT22;18781;51.550;5.418;2024-01-30T02:47:58;11.00;76.10
32296;DHT22;18781;51.550;5.418;2024-01-30T02:50:24;11.00;76.20
32296;DHT22;18781;51.550;5.418;2024-01-30T02:52:49;11.00;76.10
32296;DHT22;18781;51.550;5.418;2024-01-30T02:55:15;11.00;76.10
32296;DHT22;18781;51.550;5.418;2024-01-30T02:57:43;11.00;76.10
32296;DHT22;18781;51.550;5.418;2024-01-30T03:00:09;11.00;76.00
32296;DHT22;18781;51.550;5.418;2024-01-30T03:02:35;11.00;76.10
32296;DHT22;18781;51.550;5.418;2024-01-30T03:05:01;11.00;76.00
32296;DHT22;18781;51.550;5.418;2024-01-30T03:07:27;11.00;76.00
32296;DHT22;18781;51.550;5.418;2024-01-30T03:09:52;11.00;76.00
32296;DHT22;18781;51.550;5.418;2024-01-30T03:12:21;11.00;76.00
32296;DHT22;18781;51.550;5.418;2024-01-30T03:14:46;11.00;76.00
32296;DHT22;18781;51.550;5.418;2024-01-30T03:17:12;11.00;76.00
32296;DHT22;18781;51.550;5.418;2024-01-30T03:19:38;11.00;76.00
32296;DHT22;18781;51.550;5.418;2024-01-30T03:22:03;11.00;76.00
32296;DHT22;18781;51.550;5.418;2024-01-30T03:24:29;11.00;76.10
32296;DHT22;18781;51.550;5.418;2024-01-30T03:26:54;11.00;76.10
32296;DHT22;18781;51.550;5.418;2024-01-30T03:29:20;11.00;76.10
32296;DHT22;18781;51.550;5.418;2024-01-30T03:31:46;11.00;76.10
32296;DHT22;18781;51.550;5.418;2024-01-30T03:34:11;11.00;76.10
32296;DHT22;18781;51.550;5.418;2024-01-30T03:36:37;11.00;76.00
32296;DHT22;18781;51.550;5.418;2024-01-30T03:39:02;11.00;76.00
32296;DHT22;18781;51.550;5.418;2024-01-30T03:41:28;11.00;76.00
32296;DHT22;18781;51.550;5.418;2024-01-30T03:43:54;11.00;75.90
32296;DHT22;18781;51.550;5.418;2024-01-30T03:46:19;11.00;75.90
32296;DHT22;18781;51.550;5.418;2024-01-30T03:48:45;11.00;75.90
32296;DHT22;18781;51.550;5.418;2024-01-30T03:51:11;11.00;75.90
32296;DHT22;18781;51.550;5.418;2024-01-30T03:53:44;11.00;75.90
32296;DHT22;18781;51.550;5.418;2024-01-30T03:56:10;11.00;76.00
32296;DHT22;18781;51.550;5.418;2024-01-30T03:58:36;11.00;76.00
32296;DHT22;18781;51.550;5.418;2024-01-30T04:01:02;11.00;76.00
32296;DHT22;18781;51.550;5.418;2024-01-30T04:03:27;11.00;76.00
32296;DHT22;18781;51.550;5.418;2024-01-30T04:05:53;11.00;76.10
32296;DHT22;18781;51.550;5.418;2024-01-30T04:08:19;11.00;76.10
32296;DHT22;18781;51.550;5.418;2024-01-30T04:10:45;11.00;76.70
32296;DHT22;18781;51.550;5.418;2024-01-30T04:13:11;11.00;76.20
32296;DHT22;18781;51.550;5.418;2024-01-30T04:15:37;11.00;76.20
32296;DHT22;18781;51.550;5.418;2024-01-30T04:18:02;11.00;76.20
32296;DHT22;18781;51.550;5.418;2024-01-30T04:20:29;11.00;76.20
32296;DHT22;18781;51.550;5.418;2024-01-30T04:22:55;11.00;76.20
32296;DHT22;18781;51.550;5.418;2024-01-30T04:25:20;11.00;76.30
32296;DHT22;18781;51.550;5.418;2024-01-30T04:27:46;11.00;76.30
32296;DHT22;18781;51.550;5.418;2024-01-30T04:30:12;11.00;76.30
32296;DHT22;18781;51.550;5.418;2024-01-30T04:32:38;11.00;76.40
32296;DHT22;18781;51.550;5.418;2024-01-30T04:35:03;11.00;76.40
32296;DHT22;18781;51.550;5.418;2024-01-30T04:37:29;11.10;76.50
32296;DHT22;18781;51.550;5.418;2024-01-30T04:39:55;11.10;76.50
32296;DHT22;18781;51.550;5.418;2024-01-30T04:42:21;11.10;76.50
32296;DHT22;18781;51.550;5.418;2024-01-30T04:44:46;11.10;76.50
32296;DHT22;18781;51.550;5.418;2024-01-30T04:47:12;11.10;76.50
32296;DHT22;18781;51.550;5.418;2024-01-30T04:49:41;11.10;76.50
32296;DHT22;18781;51.550;5.418;2024-01-30T04:52:07;11.10;76.70
32296;DHT22;18781;51.550;5.418;2024-01-30T04:54:33;11.10;76.70
32296;DHT22;18781;51.550;5.418;2024-01-30T04:57:00;11.10;76.70
32296;DHT22;18781;51.550;5.418;2024-01-30T04:59:25;11.20;76.80
32296;DHT22;18781;51.550;5.418;2024-01-30T05:01:51;11.20;76.90
32296;DHT22;18781;51.550;5.418;2024-01-30T05:04:17;11.20;76.90
32296;DHT22;18781;51.550;5.418;2024-01-30T05:06:42;11.20;76.80
32296;DHT22;18781;51.550;5.418;2024-01-30T05:09:08;11.20;76.90
32296;DHT22;18781;51.550;5.418;2024-01-30T05:11:41;11.30;76.90
32296;DHT22;18781;51.550;5.418;2024-01-30T05:14:07;11.30;77.00
32296;DHT22;18781;51.550;5.418;2024-01-30T05:16:34;11.30;76.90
32296;DHT22;18781;51.550;5.418;2024-01-30T05:18:59;11.30;76.80
32296;DHT22;18781;51.550;5.418;2024-01-30T05:21:25;11.40;76.80
32296;DHT22;18781;51.550;5.418;2024-01-30T05:23:51;11.40;76.80
32296;DHT22;18781;51.550;5.418;2024-01-30T05:26:16;11.40;76.70
32296;DHT22;18781;51.550;5.418;2024-01-30T05:28:42;11.40;76.70
32296;DHT22;18781;51.550;5.418;2024-01-30T05:31:10;11.40;76.70
32296;DHT22;18781;51.550;5.418;2024-01-30T05:33:35;11.40;76.70
32296;DHT22;18781;51.550;5.418;2024-01-30T05:36:01;11.40;76.70
32296;DHT22;18781;51.550;5.418;2024-01-30T05:38:26;11.40;76.60
32296;DHT22;18781;51.550;5.418;2024-01-30T05:40:52;11.50;76.70
32296;DHT22;18781;51.550;5.418;2024-01-30T05:43:18;11.50;76.60
32296;DHT22;18781;51.550;5.418;2024-01-30T05:45:44;11.50;76.70
32296;DHT22;18781;51.550;5.418;2024-01-30T05:48:10;11.50;76.70
32296;DHT22;18781;51.550;5.418;2024-01-30T05:50:35;11.50;76.70
32296;DHT22;18781;51.550;5.418;2024-01-30T05:53:01;11.50;76.70
32296;DHT22;18781;51.550;5.418;2024-01-30T05:55:26;11.50;76.70
32296;DHT22;18781;51.550;5.418;2024-01-30T05:57:52;11.50;77.30
32296;DHT22;18781;51.550;5.418;2024-01-30T06:00:18;11.50;76.80
32296;DHT22;18781;51.550;5.418;2024-01-30T06:02:44;11.50;76.80
32296;DHT22;18781;51.550;5.418;2024-01-30T06:05:09;11.50;76.80
32296;DHT22;18781;51.550;5.418;2024-01-30T06:07:35;11.50;76.90
32296;DHT22;18781;51.550;5.418;2024-01-30T06:10:01;11.60;76.90
32296;DHT22;18781;51.550;5.418;2024-01-30T06:12:27;11.60;76.90
32296;DHT22;18781;51.550;5.418;2024-01-30T06:14:53;11.60;76.90
32296;DHT22;18781;51.550;5.418;2024-01-30T06:17:22;11.60;76.90
32296;DHT22;18781;51.550;5.418;2024-01-30T06:19:48;11.70;77.00
32296;DHT22;18781;51.550;5.418;2024-01-30T06:22:13;11.70;77.00
32296;DHT22;18781;51.550;5.418;2024-01-30T06:24:39;11.70;76.90
32296;DHT22;18781;51.550;5.418;2024-01-30T06:27:04;11.70;77.40
32296;DHT22;18781;51.550;5.418;2024-01-30T06:29:30;11.70;76.90
32296;DHT22;18781;51.550;5.418;2024-01-30T06:31:56;11.70;76.90
32296;DHT22;18781;51.550;5.418;2024-01-30T06:34:22;11.70;76.90
32296;DHT22;18781;51.550;5.418;2024-01-30T06:36:48;11.70;76.90
32296;DHT22;18781;51.550;5.418;2024-01-30T06:39:14;11.80;76.90
32296;DHT22;18781;51.550;5.418;2024-01-30T06:41:39;11.70;76.90
32296;DHT22;18781;51.550;5.418;2024-01-30T06:44:05;11.80;76.90
32296;DHT22;18781;51.550;5.418;2024-01-30T06:46:32;11.80;76.90
32296;DHT22;18781;51.550;5.418;2024-01-30T06:48:58;11.80;76.90
32296;DHT22;18781;51.550;5.418;2024-01-30T06:51:23;11.80;76.90
32296;DHT22;18781;51.550;5.418;2024-01-30T06:53:49;11.80;76.90
32296;DHT22;18781;51.550;5.418;2024-01-30T06:56:15;11.80;76.90
32296;DHT22;18781;51.550;5.418;2024-01-30T06:58:42;11.80;76.80
32296;DHT22;18781;51.550;5.418;2024-01-30T07:01:07;11.80;76.80
32296;DHT22;18781;51.550;5.418;2024-01-30T07:03:33;11.90;76.90
32296;DHT22;18781;51.550;5.418;2024-01-30T07:05:59;11.90;76.90
32296;DHT22;18781;51.550;5.418;2024-01-30T07:08:24;11.90;76.90
32296;DHT22;18781;51.550;5.418;2024-01-30T07:10:50;11.90;76.90
32296;DHT22;18781;51.550;5.418;2024-01-30T07:13:15;11.90;76.90
32296;DHT22;18781;51.550;5.418;2024-01-30T07:15:42;12.00;76.90
32296;DHT22;18781;51.550;5.418;2024-01-30T07:18:08;12.00;76.90
32296;DHT22;18781;51.550;5.418;2024-01-30T07:20:35;12.00;77.00
32296;DHT22;18781;51.550;5.418;2024-01-30T07:23:01;12.00;77.00
32296;DHT22;18781;51.550;5.418;2024-01-30T07:25:27;12.00;77.00
32296;DHT22;18781;51.550;5.418;2024-01-30T07:27:55;12.00;77.00
32296;DHT22;18781;51.550;5.418;2024-01-30T07:30:21;12.00;77.00
32296;DHT22;18781;51.550;5.418;2024-01-30T07:32:47;12.00;77.00
32296;DHT22;18781;51.550;5.418;2024-01-30T07:35:13;12.00;77.00
32296;DHT22;18781;51.550;5.418;2024-01-30T07:37:39;12.00;77.00
32296;DHT22;18781;51.550;5.418;2024-01-30T07:40:07;12.10;77.10
32296;DHT22;18781;51.550;5.418;2024-01-30T07:42:33;12.10;77.20
32296;DHT22;18781;51.550;5.418;2024-01-30T07:45:00;12.10;77.10
32296;DHT22;18781;51.550;5.418;2024-01-30T07:47:26;12.10;77.10
32296;DHT22;18781;51.550;5.418;2024-01-30T07:49:51;12.10;77.10
32296;DHT22;18781;51.550;5.418;2024-01-30T07:52:18;12.10;77.10
32296;DHT22;18781;51.550;5.418;2024-01-30T07:54:50;12.20;77.20
32296;DHT22;18781;51.550;5.418;2024-01-30T07:57:16;12.20;77.30
32296;DHT22;18781;51.550;5.418;2024-01-30T07:59:43;12.20;77.10
32296;DHT22;18781;51.550;5.418;2024-01-30T08:02:11;12.20;77.10
32296;DHT22;18781;51.550;5.418;2024-01-30T08:04:37;12.20;77.30
32296;DHT22;18781;51.550;5.418;2024-01-30T08:07:03;12.20;76.90
32296;DHT22;18781;51.550;5.418;2024-01-30T08:09:28;12.20;77.00
32296;DHT22;18781;51.550;5.418;2024-01-30T08:11:54;12.20;77.00
32296;DHT22;18781;51.550;5.418;2024-01-30T08:14:20;12.30;77.10
32296;DHT22;18781;51.550;5.418;2024-01-30T08:16:45;12.30;77.20
32296;DHT22;18781;51.550;5.418;2024-01-30T08:19:11;12.30;77.20
32296;DHT22;18781;51.550;5.418;2024-01-30T08:21:37;12.30;77.20
32296;DHT22;18781;51.550;5.418;2024-01-30T08:24:06;12.30;77.20
32296;DHT22;18781;51.550;5.418;2024-01-30T08:26:32;12.30;77.30
32296;DHT22;18781;51.550;5.418;2024-01-30T08:28:58;12.40;77.30
32296;DHT22;18781;51.550;5.418;2024-01-30T08:31:23;12.40;77.30
32296;DHT22;18781;51.550;5.418;2024-01-30T08:33:49;12.40;77.30
32296;DHT22;18781;51.550;5.418;2024-01-30T08:36:16;12.40;77.30
32296;DHT22;18781;51.550;5.418;2024-01-30T08:38:42;12.50;77.40
32296;DHT22;18781;51.550;5.418;2024-01-30T08:41:08;12.50;77.40
32296;DHT22;18781;51.550;5.418;2024-01-30T08:43:35;12.50;77.40
32296;DHT22;18781;51.550;5.418;2024-01-30T08:46:01;12.50;77.40
32296;DHT22;18781;51.550;5.418;2024-01-30T08:48:27;12.50;77.40
32296;DHT22;18781;51.550;5.418;2024-01-30T08:50:53;12.60;77.50
32296;DHT22;18781;51.550;5.418;2024-01-30T08:53:19;12.60;77.50
32296;DHT22;18781;51.550;5.418;2024-01-30T08:55:45;12.60;77.50
32296;DHT22;18781;51.550;5.418;2024-01-30T08:58:11;12.70;77.50
32296;DHT22;18781;51.550;5.418;2024-01-30T09:00:36;12.70;77.50
32296;DHT22;18781;51.550;5.418;2024-01-30T09:03:03;12.70;77.40
32296;DHT22;18781;51.550;5.418;2024-01-30T09:05:29;12.80;77.50
32296;DHT22;18781;51.550;5.418;2024-01-30T09:07:54;12.80;77.50
32296;DHT22;18781;51.550;5.418;2024-01-30T09:10:20;12.80;77.50
32296;DHT22;18781;51.550;5.418;2024-01-30T09:12:46;12.90;77.50
32296;DHT22;18781;51.550;5.418;2024-01-30T09:15:12;12.90;77.50
32296;DHT22;18781;51.550;5.418;2024-01-30T09:17:38;12.90;77.50
32296;DHT22;18781;51.550;5.418;2024-01-30T09:20:04;13.00;77.50
32296;DHT22;18781;51.550;5.418;2024-01-30T09:22:30;13.00;77.50
32296;DHT22;18781;51.550;5.418;2024-01-30T09:24:57;13.10;77.50
32296;DHT22;18781;51.550;5.418;2024-01-30T09:27:22;13.10;77.50
32296;DHT22;18781;51.550;5.418;2024-01-30T09:29:48;13.10;77.40
32296;DHT22;18781;51.550;5.418;2024-01-30T09:32:14;13.20;77.50
32296;DHT22;18781;51.550;5.418;2024-01-30T09:34:39;13.20;77.40
32296;DHT22;18781;51.550;5.418;2024-01-30T09:37:05;13.20;77.40
32296;DHT22;18781;51.550;5.418;2024-01-30T09:39:31;13.30;77.50
32296;DHT22;18781;51.550;5.418;2024-01-30T09:42:28;13.30;77.50
32296;DHT22;18781;51.550;5.418;2024-01-30T09:44:57;13.40;77.60
32296;DHT22;18781;51.550;5.418;2024-01-30T09:47:23;13.40;77.50
32296;DHT22;18781;51.550;5.418;2024-01-30T09:49:50;13.40;77.40
32296;DHT22;18781;51.550;5.418;2024-01-30T09:52:16;13.50;77.50
32296;DHT22;18781;51.550;5.418;2024-01-30T09:54:43;13.50;77.30
32296;DHT22;18781;51.550;5.418;2024-01-30T09:57:11;13.50;77.30
32296;DHT22;18781;51.550;5.418;2024-01-30T09:59:37;13.60;77.20
32296;DHT22;18781;51.550;5.418;2024-01-30T10:02:02;13.60;77.10
32296;DHT22;18781;51.550;5.418;2024-01-30T10:04:30;13.60;77.10
32296;DHT22;18781;51.550;5.418;2024-01-30T10:06:56;13.70;77.10
32296;DHT22;18781;51.550;5.418;2024-01-30T10:09:24;13.70;77.00
32296;DHT22;18781;51.550;5.418;2024-01-30T10:11:51;13.70;77.00
32296;DHT22;18781;51.550;5.418;2024-01-30T10:14:17;13.70;76.90
32296;DHT22;18781;51.550;5.418;2024-01-30T10:16:42;13.80;76.90
32296;DHT22;18781;51.550;5.418;2024-01-30T10:19:09;13.80;76.80
32296;DHT22;18781;51.550;5.418;2024-01-30T10:21:35;13.80;76.80
32296;DHT22;18781;51.550;5.418;2024-01-30T10:24:00;13.80;76.70
32296;DHT22;18781;51.550;5.418;2024-01-30T10:26:26;13.80;76.70
32296;DHT22;18781;51.550;5.418;2024-01-30T10:28:52;13.90;76.80
32296;DHT22;18781;51.550;5.418;2024-01-30T10:31:18;13.90;76.70
32296;DHT22;18781;51.550;5.418;2024-01-30T10:33:44;13.90;76.70
32296;DHT22;18781;51.550;5.418;2024-01-30T10:36:13;13.90;76.70
32296;DHT22;18781;51.550;5.418;2024-01-30T10:38:42;14.00;76.80
32296;DHT22;18781;51.550;5.418;2024-01-30T10:41:11;14.00;76.70
32296;DHT22;18781;51.550;5.418;2024-01-30T10:43:41;14.00;76.70
32296;DHT22;18781;51.550;5.418;2024-01-30T10:46:13;14.10;76.80
32296;DHT22;18781;51.550;5.418;2024-01-30T10:48:43;14.10;76.70
32296;DHT22;18781;51.550;5.418;2024-01-30T10:51:13;14.10;76.50
32296;DHT22;18781;51.550;5.418;2024-01-30T10:53:39;14.10;76.50
32296;DHT22;18781;51.550;5.418;2024-01-30T10:56:06;14.10;76.50
32296;DHT22;18781;51.550;5.418;2024-01-30T10:58:32;14.10;76.50
32296;DHT22;18781;51.550;5.418;2024-01-30T11:00:58;14.20;76.50
32296;DHT22;18781;51.550;5.418;2024-01-30T11:03:24;14.20;76.50
32296;DHT22;18781;51.550;5.418;2024-01-30T11:05:50;14.20;76.50
32296;DHT22;18781;51.550;5.418;2024-01-30T11:08:25;14.30;76.50
32296;DHT22;18781;51.550;5.418;2024-01-30T11:10:57;14.30;76.30
32296;DHT22;18781;51.550;5.418;2024-01-30T11:13:29;14.30;76.20
32296;DHT22;18781;51.550;5.418;2024-01-30T11:15:54;14.30;76.20
32296;DHT22;18781;51.550;5.418;2024-01-30T11:18:35;14.30;76.10
32296;DHT22;18781;51.550;5.418;2024-01-30T11:21:01;14.30;75.90
32296;DHT22;18781;51.550;5.418;2024-01-30T11:23:30;14.30;75.90
32296;DHT22;18781;51.550;5.418;2024-01-30T11:25:56;14.40;75.70
32296;DHT22;18781;51.550;5.418;2024-01-30T11:28:23;14.40;76.00
32296;DHT22;18781;51.550;5.418;2024-01-30T11:30:49;14.40;75.90
32296;DHT22;18781;51.550;5.418;2024-01-30T11:33:28;14.40;75.60
32296;DHT22;18781;51.550;5.418;2024-01-30T11:35:57;14.50;75.60
32296;DHT22;18781;51.550;5.418;2024-01-30T11:38:26;14.50;75.40
32296;DHT22;18781;51.550;5.418;2024-01-30T11:40:55;14.50;74.70
32296;DHT22;18781;51.550;5.418;2024-01-30T11:43:22;14.50;74.70
32296;DHT22;18781;51.550;5.418;2024-01-30T11:45:48;14.60;74.50
32296;DHT22;18781;51.550;5.418;2024-01-30T11:48:13;14.60;74.20
32296;DHT22;18781;51.550;5.418;2024-01-30T11:50:40;14.60;74.30
32296;DHT22;18781;51.550;5.418;2024-01-30T11:53:10;14.70;74.30
32296;DHT22;18781;51.550;5.418;2024-01-30T11:55:36;14.60;73.80
32296;DHT22;18781;51.550;5.418;2024-01-30T11:58:03;14.70;73.40
32296;DHT22;18781;51.550;5.418;2024-01-30T12:00:29;14.70;72.60
32296;DHT22;18781;51.550;5.418;2024-01-30T12:02:56;14.70;71.50
32296;DHT22;18781;51.550;5.418;2024-01-30T12:05:23;14.70;71.60
32296;DHT22;18781;51.550;5.418;2024-01-30T12:07:49;14.70;71.20
32296;DHT22;18781;51.550;5.418;2024-01-30T12:10:15;14.70;71.20
32296;DHT22;18781;51.550;5.418;2024-01-30T12:12:49;14.60;71.60
32296;DHT22;18781;51.550;5.418;2024-01-30T12:15:15;14.60;71.70
32296;DHT22;18781;51.550;5.418;2024-01-30T12:17:41;14.60;70.30
32296;DHT22;18781;51.550;5.418;2024-01-30T12:22:36;14.60;69.80
32296;DHT22;18781;51.550;5.418;2024-01-30T12:25:07;14.60;69.50
32296;DHT22;18781;51.550;5.418;2024-01-30T12:27:34;14.60;69.10
32296;DHT22;18781;51.550;5.418;2024-01-30T12:29:59;14.50;69.20
32296;DHT22;18781;51.550;5.418;2024-01-30T12:32:25;14.50;69.10
32296;DHT22;18781;51.550;5.418;2024-01-30T12:34:54;14.50;69.30
32296;DHT22;18781;51.550;5.418;2024-01-30T12:37:20;14.50;68.20
32296;DHT22;18781;51.550;5.418;2024-01-30T12:39:48;14.50;68.10
32296;DHT22;18781;51.550;5.418;2024-01-30T12:42:14;14.50;68.20
32296;DHT22;18781;51.550;5.418;2024-01-30T12:44:41;14.50;68.50
32296;DHT22;18781;51.550;5.418;2024-01-30T12:47:09;14.50;67.60
32296;DHT22;18781;51.550;5.418;2024-01-30T12:49:35;14.60;67.80
32296;DHT22;18781;51.550;5.418;2024-01-30T12:52:01;14.50;68.10
32296;DHT22;18781;51.550;5.418;2024-01-30T12:54:27;14.60;67.70
32296;DHT22;18781;51.550;5.418;2024-01-30T12:56:53;14.60;67.10
32296;DHT22;18781;51.550;5.418;2024-01-30T12:59:18;14.60;66.50
32296;DHT22;18781;51.550;5.418;2024-01-30T13:01:44;14.60;66.60
32296;DHT22;18781;51.550;5.418;2024-01-30T13:04:10;14.60;66.60
32296;DHT22;18781;51.550;5.418;2024-01-30T13:06:35;14.60;66.00
32296;DHT22;18781;51.550;5.418;2024-01-30T13:09:01;14.50;66.00
32296;DHT22;18781;51.550;5.418;2024-01-30T13:11:26;14.50;66.10
32296;DHT22;18781;51.550;5.418;2024-01-30T13:13:52;14.50;65.90
32296;DHT22;18781;51.550;5.418;2024-01-30T13:16:18;14.50;65.20
32296;DHT22;18781;51.550;5.418;2024-01-30T13:18:44;14.50;65.60
32296;DHT22;18781;51.550;5.418;2024-01-30T13:21:09;14.50;65.40
32296;DHT22;18781;51.550;5.418;2024-01-30T13:23:35;14.40;65.10
32296;DHT22;18781;51.550;5.418;2024-01-30T13:26:01;14.40;65.80
32296;DHT22;18781;51.550;5.418;2024-01-30T13:28:27;14.40;66.00
32296;DHT22;18781;51.550;5.418;2024-01-30T13:30:53;14.40;65.60
32296;DHT22;18781;51.550;5.418;2024-01-30T13:33:19;14.40;65.70
32296;DHT22;18781;51.550;5.418;2024-01-30T13:35:44;14.40;65.40
32296;DHT22;18781;51.550;5.418;2024-01-30T13:38:10;14.30;65.00
32296;DHT22;18781;51.550;5.418;2024-01-30T13:40:35;14.40;64.40
32296;DHT22;18781;51.550;5.418;2024-01-30T13:43:01;14.30;64.50
32296;DHT22;18781;51.550;5.418;2024-01-30T13:45:27;14.30;65.30
32296;DHT22;18781;51.550;5.418;2024-01-30T13:47:53;14.30;65.30
32296;DHT22;18781;51.550;5.418;2024-01-30T13:50:18;14.20;65.40
32296;DHT22;18781;51.550;5.418;2024-01-30T13:52:44;14.20;64.90
32296;DHT22;18781;51.550;5.418;2024-01-30T13:55:10;14.20;64.80
32296;DHT22;18781;51.550;5.418;2024-01-30T13:57:36;14.20;65.10
32296;DHT22;18781;51.550;5.418;2024-01-30T14:00:06;14.20;65.20
32296;DHT22;18781;51.550;5.418;2024-01-30T14:02:32;14.10;65.00
32296;DHT22;18781;51.550;5.418;2024-01-30T14:04:57;14.10;65.30
32296;DHT22;18781;51.550;5.418;2024-01-30T14:07:23;14.10;65.70
32296;DHT22;18781;51.550;5.418;2024-01-30T14:09:49;14.10;65.60
32296;DHT22;18781;51.550;5.418;2024-01-30T14:12:15;14.00;65.80
32296;DHT22;18781;51.550;5.418;2024-01-30T14:14:41;14.00;66.10
32296;DHT22;18781;51.550;5.418;2024-01-30T14:17:07;14.00;66.10
32296;DHT22;18781;51.550;5.418;2024-01-30T14:19:35;14.00;66.90
32296;DHT22;18781;51.550;5.418;2024-01-30T14:22:01;13.90;66.40
32296;DHT22;18781;51.550;5.418;2024-01-30T14:24:27;13.90;66.60
32296;DHT22;18781;51.550;5.418;2024-01-30T14:26:53;13.90;66.80
32296;DHT22;18781;51.550;5.418;2024-01-30T14:29:18;13.80;66.90
32296;DHT22;18781;51.550;5.418;2024-01-30T14:31:44;13.80;67.00
32296;DHT22;18781;51.550;5.418;2024-01-30T14:34:09;13.80;67.10
32296;DHT22;18781;51.550;5.418;2024-01-30T14:36:37;13.80;67.30
32296;DHT22;18781;51.550;5.418;2024-01-30T14:39:03;13.70;67.40
32296;DHT22;18781;51.550;5.418;2024-01-30T14:41:29;13.70;67.50
32296;DHT22;18781;51.550;5.418;2024-01-30T14:43:55;13.70;67.70
32296;DHT22;18781;51.550;5.418;2024-01-30T14:46:21;13.70;67.90
32296;DHT22;18781;51.550;5.418;2024-01-30T14:48:47;13.70;68.10
32296;DHT22;18781;51.550;5.418;2024-01-30T14:51:13;13.60;68.20
32296;DHT22;18781;51.550;5.418;2024-01-30T14:53:39;13.50;68.30
32296;DHT22;18781;51.550;5.418;2024-01-30T14:56:05;13.50;68.50
32296;DHT22;18781;51.550;5.418;2024-01-30T14:58:31;13.50;68.70
32296;DHT22;18781;51.550;5.418;2024-01-30T15:00:57;13.40;68.80
32296;DHT22;18781;51.550;5.418;2024-01-30T15:03:22;13.40;68.90
32296;DHT22;18781;51.550;5.418;2024-01-30T15:05:48;13.30;69.00
32296;DHT22;18781;51.550;5.418;2024-01-30T15:08:14;13.20;69.10
32296;DHT22;18781;51.550;5.418;2024-01-30T15:10:39;13.20;69.20
32296;DHT22;18781;51.550;5.418;2024-01-30T15:13:05;13.10;69.30
32296;DHT22;18781;51.550;5.418;2024-01-30T15:15:31;13.10;69.50
32296;DHT22;18781;51.550;5.418;2024-01-30T15:17:57;13.00;69.60
32296;DHT22;18781;51.550;5.418;2024-01-30T15:20:23;13.00;69.60
32296;DHT22;18781;51.550;5.418;2024-01-30T15:22:49;13.00;69.70
32296;DHT22;18781;51.550;5.418;2024-01-30T15:25:15;12.90;69.70
32296;DHT22;18781;51.550;5.418;2024-01-30T15:27:40;12.90;69.90